LFCRLFBP

Guest
Details From LFCR - Rodez Marcillac
To LFBP - Pau Pyrenees
Flight Number -
Tags generated
Created
Modified
Stats Distance 140 nm / 259 km
Max Altitude 0 ft / 0 m
Waypoints 2
Social Downloads 1
Likes 0
Share VATSIM

Download

Looking for another format? Having issues loading an existing format? Contact us
Advertisement - Login to hide

Notes

Basic altitude profile: - Ascent Rate: 2500ft/min - Ascent Speed: 250kts - Cruise Altitude: 35000ft - Cruise Speed: 420kts - Descent Rate: 1500ft/min - Descent Speed: 250kts Options: - Use NATs: no - Use PACOTS: no - Use low airways: no - Use high airways: no

Route

LFCR LFBP

ID Type Via Altitude Latitude Longitude Leg Dist Tot Dist Heading (true) Name
O LFCR APT - 0 ft / 0 m 44.40789˚ 2.48265˚ - 0 nm - Rodez Marcillac
O LFBP APT - 0 ft / 0 m 43.38108˚ -0.42075˚ 139 nm 139 nm 245° / 243° Pau Pyrenees

Altitude Profile

Advertisement - Login to hide

LFCR

Details ICAO LFCR (RDZ)
Name Rodez Marcillac
Region France
Timezone Europe/Paris (UTC+2.0)
Stats Elevation 1,910 ft / 582 m (AMSL)
Location 44.407888° 2.482646°
Runways 1
Magnetic Variation 0.898° E

METAR

LFCR 252100Z AUTO 11011KT 070V130 CAVOK 18/05 Q1015 TEMPO 13015G27KT

Decode

TAF

TAF LFCR 251700Z 2518/2618 14012KT CAVOK PROB40 TEMPO 2521/2618 13015G27KT PROB30 TEMPO 2602/2606 FEW080CB PROB30 2611/2614 FEW080CB

Decode

Departure Runways

ID Width Length Bearing (true) Bearing (mag) Surface Threshold Offset Overrun Length
13 148 ft / 45 m 6,709 ft / 2,045 m 129.07° 128.17° Asphalt 0 ft / 0 m 656 ft / 200 m
31 148 ft / 45 m 6,709 ft / 2,045 m 309.08° 308.18° Asphalt 164 ft / 50 m 0 ft / 0 m

LFBP

Details ICAO LFBP (PUF)
Name Pau Pyrenees
Region France
Timezone Europe/Paris (UTC+2.0)
Stats Elevation 616 ft / 188 m (AMSL)
Location 43.381078° -0.420752°
Runways 1
Magnetic Variation 0.148° E

METAR

LFBP 252100Z AUTO 22003KT 6000 NSC 18/16 Q1012 TEMPO SCT060TCU BECMG 1500 BR

Decode

TAF

TAF LFBP 251700Z 2518/2618 25005KT 9999 BKN020 TEMPO 2518/2522 4000 -SHRA SCT060TCU BECMG 2522/2524 1500 BR OVC003 BECMG 2606/2610 9999 BKN020 TEMPO 2611/2618 4000 -SHRA SCT040TCU BKN060 PROB40 TEMPO 2614/2618 32015G30KT 2000 -TSRAGR BKN030CB

Decode

Destination Runways

ID Width Length Bearing (true) Bearing (mag) Surface Threshold Offset Overrun Length
13 148 ft / 45 m 8,191 ft / 2,497 m 125.89° 125.74° Asphalt 0 ft / 0 m 0 ft / 0 m
31 148 ft / 45 m 8,191 ft / 2,497 m 305.90° 305.75° Asphalt 0 ft / 0 m 0 ft / 0 m

Approach Navaids

Runway Type Ident Frequency Range Bearing (true) Bearing (mag) Slope Elevation
31 Localiser PU 110.10 MHz 18 nm / 33 km 305.89° 305.74° - 576 ft / 176 m (AMSL)
31 Glidescope PU 110.10 MHz 10 nm / 19 km 305.90° 305.75° 3.00° 676 ft / 206 m (AMSL)
31 DME PU 110.10 MHz 18 nm / 33 km - - - 608 ft / 185 m (AMSL)

Popular Alternatives